createdAt,value
2019-03-15T00:00:57.097Z,0.00
2019-03-15T00:01:57.090Z,0.00
2019-03-15T00:02:57.079Z,0.00
2019-03-15T00:03:57.067Z,0.00
2019-03-15T00:04:57.059Z,0.00
2019-03-15T00:05:57.056Z,0.00
2019-03-15T00:06:57.036Z,0.00
2019-03-15T00:07:57.026Z,0.00
2019-03-15T00:08:57.417Z,0.00
2019-03-15T00:09:57.001Z,0.00
2019-03-15T00:10:56.998Z,0.00
2019-03-15T00:11:56.981Z,0.00
2019-03-15T00:12:56.968Z,0.00
2019-03-15T00:13:56.962Z,0.00
2019-03-15T00:14:56.948Z,0.00
2019-03-15T00:15:56.939Z,0.00
2019-03-15T00:16:56.928Z,0.00
2019-03-15T00:17:56.918Z,0.00
2019-03-15T00:18:56.903Z,0.00
2019-03-15T00:19:56.897Z,0.00
2019-03-15T00:20:56.892Z,0.00
2019-03-15T00:21:56.871Z,0.00
2019-03-15T00:22:56.860Z,0.00
2019-03-15T00:23:56.852Z,0.00
2019-03-15T00:24:56.839Z,0.00
2019-03-15T00:25:56.829Z,0.00
2019-03-15T00:26:56.823Z,0.00
2019-03-15T00:27:56.815Z,0.00
2019-03-15T00:28:56.802Z,0.00
2019-03-15T00:29:56.788Z,0.00
2019-03-15T00:30:56.777Z,0.00
2019-03-15T00:31:56.768Z,0.00
2019-03-15T00:32:56.754Z,0.00
2019-03-15T00:33:56.743Z,0.00
2019-03-15T00:34:56.734Z,0.00
2019-03-15T00:35:56.726Z,0.00
2019-03-15T00:36:56.717Z,0.00
2019-03-15T00:37:56.783Z,0.00
2019-03-15T00:38:56.695Z,0.00
2019-03-15T00:39:56.682Z,0.00
2019-03-15T00:40:56.670Z,0.00
2019-03-15T00:41:56.660Z,0.00
2019-03-15T00:42:56.648Z,0.00
2019-03-15T00:43:56.643Z,0.00
2019-03-15T00:44:56.630Z,0.00
2019-03-15T00:45:56.621Z,0.00
2019-03-15T00:46:56.606Z,0.00
2019-03-15T00:47:56.596Z,0.00
2019-03-15T00:48:56.583Z,0.00
2019-03-15T00:49:56.572Z,0.00
2019-03-15T00:50:56.561Z,0.00
2019-03-15T00:51:56.549Z,0.00
2019-03-15T00:52:56.540Z,0.00
2019-03-15T00:53:56.530Z,0.00
2019-03-15T00:54:56.524Z,0.00
2019-03-15T00:55:56.515Z,0.00
2019-03-15T00:56:56.499Z,0.00
2019-03-15T00:57:56.487Z,0.00
2019-03-15T00:58:56.481Z,0.00
2019-03-15T00:59:56.473Z,0.00
2019-03-15T01:00:56.459Z,0.00
2019-03-15T01:01:56.452Z,0.00
2019-03-15T01:02:56.433Z,0.00
2019-03-15T01:03:56.422Z,0.00
2019-03-15T01:04:56.412Z,0.00
2019-03-15T01:05:56.402Z,0.00
2019-03-15T01:06:56.391Z,0.00
2019-03-15T01:07:56.385Z,0.00
2019-03-15T01:08:56.368Z,0.00
2019-03-15T01:09:56.359Z,0.00
2019-03-15T01:10:56.351Z,0.00
2019-03-15T01:11:56.342Z,0.00
2019-03-15T01:12:56.330Z,0.00
2019-03-15T01:13:56.316Z,0.00
2019-03-15T01:14:56.313Z,0.00
2019-03-15T01:15:56.295Z,0.00
2019-03-15T01:16:56.282Z,0.00
2019-03-15T01:17:56.271Z,0.00
2019-03-15T01:18:56.264Z,0.00
2019-03-15T01:19:56.253Z,0.00
2019-03-15T01:20:56.240Z,0.00
2019-03-15T01:21:56.227Z,0.00
2019-03-15T01:22:56.219Z,0.00
2019-03-15T01:23:56.298Z,0.00
2019-03-15T01:24:56.200Z,0.00
2019-03-15T01:25:56.188Z,0.00
2019-03-15T01:26:56.175Z,0.00
2019-03-15T01:27:56.167Z,0.00
2019-03-15T01:28:56.154Z,0.00
2019-03-15T01:29:56.143Z,0.00
2019-03-15T01:30:56.135Z,0.00
2019-03-15T01:31:56.124Z,0.00
2019-03-15T01:32:56.110Z,0.00
2019-03-15T01:33:56.109Z,0.00
2019-03-15T01:34:56.091Z,0.00
2019-03-15T01:35:56.079Z,0.00
2019-03-15T01:36:56.071Z,0.00
2019-03-15T01:37:56.074Z,0.00
2019-03-15T01:38:56.047Z,0.00
2019-03-15T01:39:56.037Z,0.00
2019-03-15T01:40:56.026Z,0.00
2019-03-15T01:41:56.441Z,0.00
2019-03-15T01:42:56.008Z,0.00
2019-03-15T01:43:55.993Z,0.00
2019-03-15T01:44:55.986Z,0.00
2019-03-15T01:45:55.972Z,0.00
2019-03-15T01:46:55.960Z,0.00
2019-03-15T01:47:55.950Z,0.00
2019-03-15T01:48:55.939Z,0.00
2019-03-15T01:49:55.928Z,0.00
2019-03-15T01:50:55.918Z,0.00
2019-03-15T01:51:55.908Z,0.00
2019-03-15T01:52:55.898Z,0.00
2019-03-15T01:53:55.890Z,0.00
2019-03-15T01:54:55.877Z,0.00
2019-03-15T01:55:55.868Z,0.00
2019-03-15T01:56:55.855Z,0.00
2019-03-15T01:57:55.842Z,0.00
2019-03-15T01:58:55.833Z,0.00
2019-03-15T01:59:55.820Z,0.00
2019-03-15T02:00:55.815Z,0.00
2019-03-15T02:01:56.843Z,0.00
2019-03-15T02:02:55.790Z,0.00
2019-03-15T02:03:55.782Z,0.00
2019-03-15T02:04:55.767Z,0.00
2019-03-15T02:05:55.763Z,0.00
2019-03-15T02:06:55.751Z,0.00
2019-03-15T02:07:55.752Z,0.00
2019-03-15T02:08:55.724Z,0.00
2019-03-15T02:09:55.714Z,0.00
2019-03-15T02:10:55.705Z,0.00
2019-03-15T02:11:55.755Z,0.00
2019-03-15T02:12:55.685Z,0.00
2019-03-15T02:13:55.671Z,0.00
2019-03-15T02:14:55.667Z,0.00
2019-03-15T02:15:55.650Z,0.00
2019-03-15T02:16:55.644Z,0.00
2019-03-15T02:17:55.632Z,0.00
2019-03-15T02:18:55.621Z,0.00
2019-03-15T02:19:55.607Z,0.00
2019-03-15T02:20:55.600Z,0.00
2019-03-15T02:21:55.586Z,0.00
2019-03-15T02:22:55.574Z,0.00
2019-03-15T02:23:55.576Z,0.00
2019-03-15T02:24:55.557Z,0.00
2019-03-15T02:25:55.545Z,0.00
2019-03-15T02:26:55.531Z,0.00
2019-03-15T02:27:55.523Z,0.00
2019-03-15T02:28:55.511Z,0.00
2019-03-15T02:29:55.501Z,0.00
2019-03-15T02:30:55.489Z,0.00
2019-03-15T02:31:55.488Z,0.00
2019-03-15T02:32:55.476Z,0.00
2019-03-15T02:33:55.467Z,0.00
2019-03-15T02:34:55.446Z,0.00
2019-03-15T02:35:55.438Z,0.00
2019-03-15T02:36:55.428Z,0.00
2019-03-15T02:37:55.414Z,0.00
2019-03-15T02:38:55.408Z,0.00
2019-03-15T02:39:55.398Z,0.00
2019-03-15T02:40:55.399Z,0.00
2019-03-15T02:41:55.467Z,0.00
2019-03-15T02:42:55.374Z,0.00
2019-03-15T02:43:55.352Z,0.00
2019-03-15T02:44:55.343Z,0.00
2019-03-15T02:45:55.328Z,0.00
2019-03-15T02:46:55.444Z,0.00
2019-03-15T02:47:55.326Z,0.00
2019-03-15T02:48:55.293Z,0.00
2019-03-15T02:49:55.302Z,0.00
2019-03-15T02:50:56.157Z,0.00
2019-03-15T02:51:55.269Z,0.00
2019-03-15T02:52:55.258Z,0.00
2019-03-15T02:53:55.248Z,0.00
2019-03-15T02:54:55.230Z,0.00
2019-03-15T02:55:55.218Z,0.00
2019-03-15T02:56:55.210Z,0.00
2019-03-15T02:57:55.201Z,0.00
2019-03-15T02:58:55.202Z,0.00
2019-03-15T02:59:55.180Z,0.00
2019-03-15T03:00:55.167Z,0.00
2019-03-15T03:01:55.165Z,0.00
2019-03-15T03:02:55.153Z,0.00
2019-03-15T03:03:55.148Z,0.00
2019-03-15T03:04:55.123Z,0.00
2019-03-15T03:05:55.110Z,0.00
2019-03-15T03:06:55.107Z,0.00
2019-03-15T03:07:55.091Z,0.00
2019-03-15T03:08:55.080Z,0.00
2019-03-15T03:09:55.073Z,0.00
2019-03-15T03:10:55.910Z,0.00
2019-03-15T03:11:55.047Z,0.00
2019-03-15T03:12:55.045Z,0.00
2019-03-15T03:13:55.033Z,0.00
2019-03-15T03:14:55.015Z,0.00
2019-03-15T03:15:55.010Z,0.00
2019-03-15T03:16:55.011Z,0.00
2019-03-15T03:17:54.989Z,0.00
2019-03-15T03:18:54.973Z,0.00
2019-03-15T03:19:54.963Z,0.00
2019-03-15T03:20:54.954Z,0.00
2019-03-15T03:21:54.941Z,0.00
2019-03-15T03:22:54.933Z,0.00
2019-03-15T03:23:54.922Z,0.00
2019-03-15T03:24:54.915Z,0.00
2019-03-15T03:25:54.899Z,0.00
2019-03-15T03:26:54.887Z,0.00
2019-03-15T03:27:54.880Z,0.00
2019-03-15T03:28:54.866Z,0.00
2019-03-15T03:29:54.860Z,0.00
2019-03-15T03:30:54.850Z,0.00
2019-03-15T03:31:54.841Z,0.00
2019-03-15T03:32:54.841Z,0.00
2019-03-15T03:33:54.837Z,0.00
2019-03-15T03:34:54.813Z,0.00
2019-03-15T03:35:54.801Z,0.00
2019-03-15T03:36:57.753Z,0.00
2019-03-15T03:37:54.774Z,0.00
2019-03-15T03:38:54.759Z,0.00
2019-03-15T03:39:54.766Z,0.00
2019-03-15T03:40:56.238Z,0.00
2019-03-15T03:41:55.010Z,0.00
2019-03-15T03:42:54.722Z,0.00
2019-03-15T03:43:54.705Z,0.00
2019-03-15T03:44:54.695Z,0.00
2019-03-15T03:45:54.689Z,0.00
2019-03-15T03:46:54.676Z,0.00
2019-03-15T03:47:54.664Z,0.00
2019-03-15T03:48:54.652Z,0.00
2019-03-15T03:49:54.649Z,0.00
2019-03-15T03:50:54.630Z,0.00
2019-03-15T03:51:54.626Z,0.00
2019-03-15T03:52:54.611Z,0.00
2019-03-15T03:53:54.598Z,0.00
2019-03-15T03:54:54.586Z,0.00
2019-03-15T03:55:54.576Z,0.00
2019-03-15T03:56:54.566Z,0.00
2019-03-15T03:57:54.558Z,0.00
2019-03-15T03:58:54.543Z,0.00
2019-03-15T03:59:54.533Z,0.00
2019-03-15T04:00:54.522Z,0.00
2019-03-15T04:01:54.512Z,0.00
2019-03-15T04:02:54.502Z,0.00
2019-03-15T04:03:54.494Z,0.00
2019-03-15T04:04:54.485Z,0.00
2019-03-15T04:05:54.470Z,0.00
2019-03-15T04:06:54.457Z,0.00
2019-03-15T04:07:54.448Z,0.00
2019-03-15T04:08:54.436Z,0.00
2019-03-15T04:09:54.425Z,0.00
2019-03-15T04:10:54.415Z,0.00
2019-03-15T04:11:55.900Z,0.00
2019-03-15T04:12:54.392Z,0.00
2019-03-15T04:13:54.383Z,0.00
2019-03-15T04:14:54.372Z,0.00
2019-03-15T04:15:54.363Z,0.00
2019-03-15T04:16:54.350Z,0.00
2019-03-15T04:17:54.340Z,0.00
2019-03-15T04:18:54.329Z,0.00
2019-03-15T04:19:54.319Z,0.00
2019-03-15T04:20:54.308Z,0.00
2019-03-15T04:21:54.296Z,0.00
2019-03-15T04:22:55.464Z,0.00
2019-03-15T04:23:54.278Z,0.00
2019-03-15T04:24:54.265Z,0.00
2019-03-15T04:25:54.254Z,0.00
2019-03-15T04:26:54.250Z,0.00
2019-03-15T04:27:54.233Z,0.00
2019-03-15T04:28:56.875Z,0.00
2019-03-15T04:29:54.211Z,0.00
2019-03-15T04:30:54.201Z,0.00
2019-03-15T04:31:54.189Z,0.00
2019-03-15T04:32:54.189Z,0.00
2019-03-15T04:33:54.170Z,0.00
2019-03-15T04:34:54.160Z,0.00
2019-03-15T04:35:54.155Z,0.00
2019-03-15T04:36:54.220Z,0.00
2019-03-15T04:37:54.124Z,0.00
2019-03-15T04:38:54.116Z,0.00
2019-03-15T04:39:54.105Z,0.00
2019-03-15T04:40:54.099Z,0.00
2019-03-15T04:41:54.083Z,0.00
2019-03-15T04:42:54.072Z,0.00
2019-03-15T04:43:54.062Z,0.00
2019-03-15T04:44:54.056Z,0.00
2019-03-15T04:45:54.039Z,0.00
2019-03-15T04:46:54.035Z,0.00
2019-03-15T04:47:54.024Z,0.00
2019-03-15T04:48:54.008Z,0.00
2019-03-15T04:49:53.996Z,0.00
2019-03-15T04:50:53.985Z,0.00
2019-03-15T04:51:53.976Z,0.00
2019-03-15T04:52:53.964Z,0.00
2019-03-15T04:53:53.956Z,0.00
2019-03-15T04:54:53.943Z,0.00
2019-03-15T04:55:53.934Z,0.00
2019-03-15T04:56:53.923Z,0.00
2019-03-15T04:57:53.910Z,0.00
2019-03-15T04:58:53.901Z,0.00
2019-03-15T04:59:53.892Z,0.00
2019-03-15T05:00:53.879Z,0.00
2019-03-15T05:01:53.894Z,0.00
2019-03-15T05:02:53.859Z,0.00
2019-03-15T05:03:53.846Z,0.00
2019-03-15T05:04:53.837Z,0.00
2019-03-15T05:06:02.992Z,0.00
2019-03-15T05:06:54.813Z,0.00
2019-03-15T05:07:53.810Z,0.00
2019-03-15T05:08:53.859Z,0.00
2019-03-15T05:09:53.793Z,0.00
2019-03-15T05:10:53.776Z,0.00
2019-03-15T05:11:53.771Z,0.00
2019-03-15T05:12:53.751Z,0.00
2019-03-15T05:13:53.739Z,0.00
2019-03-15T05:14:53.729Z,5.62
2019-03-15T05:15:53.806Z,5.62
2019-03-15T05:16:53.707Z,5.62
2019-03-15T05:17:53.697Z,5.62
2019-03-15T05:18:53.685Z,5.62
2019-03-15T05:19:53.678Z,11.25
2019-03-15T05:20:53.665Z,11.25
2019-03-15T05:21:53.653Z,11.25
2019-03-15T05:22:53.646Z,11.25
2019-03-15T05:23:53.633Z,16.88
2019-03-15T05:24:53.621Z,16.88
2019-03-15T05:25:53.611Z,16.88
2019-03-15T05:26:53.600Z,16.88
2019-03-15T05:27:53.590Z,16.88
2019-03-15T05:28:53.577Z,16.88
2019-03-15T05:29:53.569Z,16.88
2019-03-15T05:30:53.556Z,16.88
2019-03-15T05:31:53.548Z,16.88
2019-03-15T05:32:53.535Z,22.50
2019-03-15T05:33:53.524Z,22.50
2019-03-15T05:34:53.515Z,22.50
2019-03-15T05:35:53.504Z,22.50
2019-03-15T05:36:53.505Z,16.88
2019-03-15T05:37:53.482Z,22.50
2019-03-15T05:38:53.473Z,22.50
2019-03-15T05:39:53.536Z,11.25
2019-03-15T05:40:53.456Z,11.25
2019-03-15T05:41:53.438Z,11.25
2019-03-15T05:42:53.429Z,11.25
2019-03-15T05:43:53.418Z,11.25
2019-03-15T05:44:54.540Z,11.25
2019-03-15T05:45:53.403Z,11.25
2019-03-15T05:46:53.391Z,16.88
2019-03-15T05:47:53.379Z,16.88
2019-03-15T05:48:53.370Z,22.50
2019-03-15T05:49:53.367Z,22.50
2019-03-15T05:50:53.342Z,28.12
2019-03-15T05:51:53.331Z,28.12
2019-03-15T05:52:53.321Z,28.12
2019-03-15T05:53:53.311Z,33.75
2019-03-15T05:54:53.302Z,28.12
2019-03-15T05:55:53.290Z,33.75
2019-03-15T05:56:53.366Z,33.75
2019-03-15T05:57:53.268Z,45.00
2019-03-15T05:58:53.279Z,45.00
2019-03-15T05:59:53.253Z,45.00
2019-03-15T06:00:53.236Z,50.62
2019-03-15T06:01:53.225Z,61.88
2019-03-15T06:02:53.216Z,73.12
2019-03-15T06:03:53.221Z,78.75
2019-03-15T06:04:53.192Z,67.50
2019-03-15T06:05:53.183Z,67.50
2019-03-15T06:06:53.171Z,56.25
2019-03-15T06:07:53.167Z,56.25
2019-03-15T06:08:53.154Z,50.62
2019-03-15T06:09:53.138Z,45.00
2019-03-15T06:10:54.776Z,61.88
2019-03-15T06:11:53.120Z,56.25
2019-03-15T06:12:53.113Z,50.62
2019-03-15T06:13:53.095Z,50.62
2019-03-15T06:14:53.084Z,73.12
2019-03-15T06:15:53.073Z,101.25
2019-03-15T06:16:53.064Z,135.00
2019-03-15T06:17:53.055Z,129.38
2019-03-15T06:18:53.047Z,140.62
2019-03-15T06:19:53.032Z,157.50
2019-03-15T06:20:53.023Z,163.12
2019-03-15T06:21:53.010Z,151.88
2019-03-15T06:22:52.998Z,151.88
2019-03-15T06:23:52.989Z,151.88
2019-03-15T06:24:52.979Z,157.50
2019-03-15T06:25:52.967Z,168.75
2019-03-15T06:26:52.958Z,213.75
2019-03-15T06:27:52.945Z,241.88
2019-03-15T06:28:52.935Z,208.12
2019-03-15T06:29:52.929Z,185.62
2019-03-15T06:30:52.915Z,185.62
2019-03-15T06:31:52.964Z,213.75
2019-03-15T06:32:52.893Z,196.88
2019-03-15T06:33:52.886Z,202.50
2019-03-15T06:34:52.870Z,264.38
2019-03-15T06:35:52.867Z,253.12
2019-03-15T06:36:52.851Z,241.88
2019-03-15T06:37:52.838Z,225.00
2019-03-15T06:38:52.832Z,230.62
2019-03-15T06:39:52.816Z,236.25
2019-03-15T06:40:52.807Z,354.38
2019-03-15T06:41:53.698Z,303.75
2019-03-15T06:42:52.810Z,298.12
2019-03-15T06:43:52.773Z,286.88
2019-03-15T06:44:58.010Z,433.12
2019-03-15T06:45:53.754Z,433.12
2019-03-15T06:46:52.757Z,1057.50
2019-03-15T06:47:52.750Z,511.88
2019-03-15T06:48:52.837Z,1468.12
2019-03-15T06:49:52.709Z,624.38
2019-03-15T06:50:52.701Z,343.12
2019-03-15T06:51:52.691Z,320.62
2019-03-15T06:52:52.678Z,326.25
2019-03-15T06:53:52.667Z,343.12
2019-03-15T06:54:52.660Z,365.62
2019-03-15T06:55:52.645Z,337.50
2019-03-15T06:56:52.639Z,292.50
2019-03-15T06:57:52.623Z,298.12
2019-03-15T06:58:52.612Z,326.25
2019-03-15T06:59:52.605Z,382.50
2019-03-15T07:00:54.824Z,326.25
2019-03-15T07:01:52.581Z,281.25
2019-03-15T07:02:52.569Z,196.88
2019-03-15T07:03:52.559Z,180.00
2019-03-15T07:04:52.552Z,163.12
2019-03-15T07:05:52.541Z,146.25
2019-03-15T07:06:52.527Z,174.38
2019-03-15T07:07:52.517Z,196.88
2019-03-15T07:08:52.505Z,236.25
2019-03-15T07:09:52.495Z,208.12
2019-03-15T07:10:52.491Z,230.62
2019-03-15T07:11:52.474Z,264.38
2019-03-15T07:12:52.465Z,281.25
2019-03-15T07:13:52.470Z,281.25
2019-03-15T07:14:52.442Z,258.75
2019-03-15T07:15:52.433Z,230.62
2019-03-15T07:16:52.422Z,213.75
2019-03-15T07:17:52.413Z,225.00
2019-03-15T07:18:52.398Z,241.88
2019-03-15T07:19:52.390Z,236.25
2019-03-15T07:20:52.378Z,230.62
2019-03-15T07:21:52.371Z,230.62
2019-03-15T07:22:52.360Z,247.50
2019-03-15T07:23:52.348Z,258.75
2019-03-15T07:24:52.333Z,281.25
2019-03-15T07:25:52.329Z,298.12
2019-03-15T07:26:52.314Z,298.12
2019-03-15T07:27:52.319Z,337.50
2019-03-15T07:28:52.294Z,399.38
2019-03-15T07:29:52.282Z,421.88
2019-03-15T07:30:52.274Z,427.50
2019-03-15T07:31:52.259Z,438.75
2019-03-15T07:32:52.356Z,511.88
2019-03-15T07:33:52.238Z,556.88
2019-03-15T07:34:52.227Z,562.50
2019-03-15T07:35:52.217Z,534.38
2019-03-15T07:36:55.196Z,461.25
2019-03-15T07:37:52.194Z,416.25
2019-03-15T07:38:52.186Z,388.12
2019-03-15T07:39:52.178Z,410.62
2019-03-15T07:40:52.164Z,438.75
2019-03-15T07:41:52.151Z,455.62
2019-03-15T07:42:52.142Z,466.88
2019-03-15T07:43:52.132Z,540.00
2019-03-15T07:44:52.122Z,523.12
2019-03-15T07:45:52.110Z,540.00
2019-03-15T07:46:52.098Z,455.62
2019-03-15T07:47:52.093Z,348.75
2019-03-15T07:48:52.081Z,354.38
2019-03-15T07:49:52.069Z,298.12
2019-03-15T07:50:52.060Z,326.25
2019-03-15T07:51:52.050Z,365.62
2019-03-15T07:52:52.034Z,393.75
2019-03-15T07:53:52.026Z,455.62
2019-03-15T07:54:52.013Z,450.00
2019-03-15T07:55:52.007Z,528.75
2019-03-15T07:56:51.995Z,635.62
2019-03-15T07:57:51.982Z,787.50
2019-03-15T07:58:51.971Z,916.88
2019-03-15T07:59:51.960Z,759.38
2019-03-15T08:00:51.950Z,697.50
2019-03-15T08:01:52.839Z,613.12
2019-03-15T08:02:51.933Z,708.75
2019-03-15T08:03:51.925Z,635.62
2019-03-15T08:04:51.906Z,483.75
2019-03-15T08:05:51.895Z,416.25
2019-03-15T08:06:51.894Z,405.00
2019-03-15T08:07:51.874Z,455.62
2019-03-15T08:08:51.867Z,478.12
2019-03-15T08:09:51.855Z,517.50
2019-03-15T08:10:54.833Z,545.62
2019-03-15T08:11:51.834Z,686.25
2019-03-15T08:12:51.823Z,821.25
2019-03-15T08:13:51.810Z,888.75
2019-03-15T08:14:51.798Z,781.88
2019-03-15T08:15:51.787Z,765.00
2019-03-15T08:16:51.883Z,804.38
2019-03-15T08:17:51.766Z,804.38
2019-03-15T08:18:51.758Z,911.25
2019-03-15T08:19:51.747Z,663.75
2019-03-15T08:20:51.733Z,675.00
2019-03-15T08:21:51.723Z,618.75
2019-03-15T08:22:51.712Z,556.88
2019-03-15T08:23:51.701Z,585.00
2019-03-15T08:24:52.008Z,585.00
2019-03-15T08:25:51.680Z,585.00
2019-03-15T08:26:51.756Z,624.38
2019-03-15T08:27:51.657Z,686.25
2019-03-15T08:28:51.650Z,883.12
2019-03-15T08:29:52.864Z,793.12
2019-03-15T08:30:51.630Z,652.50
2019-03-15T08:31:51.617Z,725.62
2019-03-15T08:32:51.604Z,871.88
2019-03-15T08:33:51.596Z,860.62
2019-03-15T08:34:51.582Z,883.12
2019-03-15T08:35:51.577Z,1102.50
2019-03-15T08:36:51.561Z,1732.50
2019-03-15T08:37:51.549Z,528.75
2019-03-15T08:38:51.560Z,590.62
2019-03-15T08:39:51.531Z,748.12
2019-03-15T08:40:51.522Z,680.62
2019-03-15T08:41:51.510Z,551.25
2019-03-15T08:42:51.499Z,472.50
2019-03-15T08:43:51.492Z,371.25
2019-03-15T08:44:51.478Z,410.62
2019-03-15T08:45:51.465Z,517.50
2019-03-15T08:46:51.455Z,466.88
2019-03-15T08:47:51.449Z,556.88
2019-03-15T08:48:51.436Z,585.00
2019-03-15T08:49:51.424Z,579.38
2019-03-15T08:50:51.432Z,725.62
2019-03-15T08:52:03.299Z,1102.50
2019-03-15T08:52:54.076Z,579.38
2019-03-15T08:53:51.377Z,568.12
2019-03-15T08:55:04.210Z,590.62
2019-03-15T08:55:52.353Z,691.88
2019-03-15T08:56:51.342Z,708.75
2019-03-15T08:57:51.337Z,708.75
2019-03-15T08:58:51.322Z,658.12
2019-03-15T08:59:56.961Z,630.00
2019-03-15T09:00:52.301Z,590.62
2019-03-15T09:01:51.294Z,427.50
2019-03-15T09:02:51.277Z,444.38
2019-03-15T09:03:51.267Z,450.00
2019-03-15T09:04:51.258Z,450.00
2019-03-15T09:05:51.244Z,450.00
2019-03-15T09:06:51.237Z,483.75
2019-03-15T09:07:51.231Z,601.88
2019-03-15T09:08:51.214Z,703.12
2019-03-15T09:09:51.202Z,725.62
2019-03-15T09:10:51.191Z,973.12
2019-03-15T09:11:51.180Z,866.25
2019-03-15T09:12:51.207Z,1068.75
2019-03-15T09:13:51.158Z,911.25
2019-03-15T09:14:51.152Z,855.00
2019-03-15T09:15:51.368Z,545.62
2019-03-15T09:16:51.126Z,562.50
2019-03-15T09:17:51.114Z,635.62
2019-03-15T09:18:51.105Z,663.75
2019-03-15T09:19:51.096Z,765.00
2019-03-15T09:20:51.083Z,838.12
2019-03-15T09:21:51.073Z,995.62
2019-03-15T09:22:51.065Z,1091.25
2019-03-15T09:23:51.052Z,1445.62
2019-03-15T09:24:51.039Z,1226.25
2019-03-15T09:25:51.029Z,883.12
2019-03-15T09:26:51.021Z,894.38
2019-03-15T09:27:51.010Z,877.50
2019-03-15T09:28:50.997Z,1451.25
2019-03-15T09:29:50.987Z,877.50
2019-03-15T09:30:50.977Z,1130.62
2019-03-15T09:32:04.546Z,1693.12
2019-03-15T09:32:51.955Z,1175.62
2019-03-15T09:33:50.943Z,1248.75
2019-03-15T09:34:50.933Z,1125.00
2019-03-15T09:35:50.984Z,1085.62
2019-03-15T09:36:50.919Z,1023.75
2019-03-15T09:37:50.907Z,1012.50
2019-03-15T09:38:50.890Z,894.38
2019-03-15T09:39:50.879Z,804.38
2019-03-15T09:40:50.878Z,787.50
2019-03-15T09:41:50.862Z,748.12
2019-03-15T09:42:50.847Z,753.75
2019-03-15T09:43:50.840Z,720.00
2019-03-15T09:44:50.827Z,680.62
2019-03-15T09:45:50.816Z,601.88
2019-03-15T09:46:50.805Z,663.75
2019-03-15T09:47:50.797Z,708.75
2019-03-15T09:48:50.787Z,523.12
2019-03-15T09:49:50.773Z,388.12
2019-03-15T09:50:51.829Z,365.62
2019-03-15T09:51:50.751Z,348.75
2019-03-15T09:52:50.742Z,360.00
2019-03-15T09:53:50.731Z,405.00
2019-03-15T09:54:50.721Z,556.88
2019-03-15T09:55:50.708Z,691.88
2019-03-15T09:56:50.698Z,742.50
2019-03-15T09:57:50.687Z,736.88
2019-03-15T09:58:50.679Z,641.25
2019-03-15T09:59:50.668Z,680.62
2019-03-15T10:00:50.656Z,590.62
2019-03-15T10:01:50.644Z,630.00
2019-03-15T10:02:50.637Z,697.50
2019-03-15T10:03:50.626Z,675.00
2019-03-15T10:04:50.613Z,545.62
2019-03-15T10:05:50.602Z,528.75
2019-03-15T10:06:50.590Z,613.12
2019-03-15T10:07:50.579Z,624.38
2019-03-15T10:08:50.591Z,601.88
2019-03-15T10:09:50.560Z,826.88
2019-03-15T10:10:50.548Z,725.62
2019-03-15T10:11:50.537Z,736.88
2019-03-15T10:12:50.534Z,680.62
2019-03-15T10:13:50.514Z,888.75
2019-03-15T10:14:50.504Z,1113.75
2019-03-15T10:15:50.660Z,995.62
2019-03-15T10:16:50.482Z,748.12
2019-03-15T10:17:50.473Z,590.62
2019-03-15T10:18:50.716Z,635.62
2019-03-15T10:19:50.449Z,596.25
2019-03-15T10:20:50.441Z,1029.38
2019-03-15T10:21:50.433Z,1203.75
2019-03-15T10:23:04.861Z,2829.38
2019-03-15T10:23:51.407Z,2475.00
2019-03-15T10:24:50.397Z,2970.00
2019-03-15T10:25:51.405Z,945.00
2019-03-15T10:26:50.378Z,1096.88
2019-03-15T10:27:50.364Z,2435.62
2019-03-15T10:28:50.356Z,1226.25
2019-03-15T10:29:50.352Z,3105.00
2019-03-15T10:30:50.334Z,3397.50
2019-03-15T10:31:50.323Z,1293.75
2019-03-15T10:32:50.313Z,990.00
2019-03-15T10:33:51.078Z,995.62
2019-03-15T10:34:50.293Z,871.88
2019-03-15T10:35:50.279Z,618.75
2019-03-15T10:36:50.268Z,556.88
2019-03-15T10:37:50.257Z,523.12
2019-03-15T10:38:50.247Z,421.88
2019-03-15T10:39:50.234Z,371.25
2019-03-15T10:40:50.229Z,500.62
2019-03-15T10:41:50.214Z,478.12
2019-03-15T10:42:50.205Z,444.38
2019-03-15T10:43:50.367Z,601.88
2019-03-15T10:44:50.181Z,618.75
2019-03-15T10:45:50.171Z,506.25
2019-03-15T10:46:50.171Z,495.00
2019-03-15T10:47:50.149Z,528.75
2019-03-15T10:48:50.143Z,528.75
2019-03-15T10:49:50.129Z,545.62
2019-03-15T10:50:50.120Z,590.62
2019-03-15T10:51:50.106Z,511.88
2019-03-15T10:52:53.520Z,455.62
2019-03-15T10:53:50.087Z,517.50
2019-03-15T10:54:50.075Z,495.00
2019-03-15T10:55:59.491Z,388.12
2019-03-15T10:56:51.053Z,337.50
2019-03-15T10:57:50.043Z,258.75
2019-03-15T10:58:50.030Z,241.88
2019-03-15T10:59:50.021Z,286.88
2019-03-15T11:00:50.010Z,315.00
2019-03-15T11:01:49.998Z,343.12
2019-03-15T11:02:49.989Z,438.75
2019-03-15T11:03:49.977Z,545.62
2019-03-15T11:04:49.972Z,562.50
2019-03-15T11:05:49.985Z,489.38
2019-03-15T11:06:49.997Z,472.50
2019-03-15T11:07:49.934Z,489.38
2019-03-15T11:08:49.926Z,568.12
2019-03-15T11:09:49.913Z,663.75
2019-03-15T11:10:49.915Z,742.50
2019-03-15T11:11:49.891Z,838.12
2019-03-15T11:12:49.887Z,793.12
2019-03-15T11:13:49.870Z,742.50
2019-03-15T11:14:49.867Z,753.75
2019-03-15T11:15:49.850Z,894.38
2019-03-15T11:16:49.838Z,1085.62
2019-03-15T11:17:49.828Z,1406.25
2019-03-15T11:18:49.818Z,1158.75
2019-03-15T11:19:49.806Z,1035.00
2019-03-15T11:20:49.797Z,945.00
2019-03-15T11:21:49.787Z,888.75
2019-03-15T11:22:49.774Z,658.12
2019-03-15T11:23:49.765Z,534.38
2019-03-15T11:24:49.753Z,596.25
2019-03-15T11:25:49.743Z,641.25
2019-03-15T11:26:49.731Z,770.62
2019-03-15T11:27:49.719Z,1085.62
2019-03-15T11:28:49.713Z,1743.75
2019-03-15T11:29:49.698Z,1350.00
2019-03-15T11:30:49.689Z,1181.25
2019-03-15T11:31:49.678Z,1254.38
2019-03-15T11:32:49.667Z,1293.75
2019-03-15T11:33:49.655Z,866.25
2019-03-15T11:34:49.644Z,765.00
2019-03-15T11:35:49.634Z,1603.12
2019-03-15T11:36:58.262Z,2160.00
2019-03-15T11:37:50.611Z,911.25
2019-03-15T11:38:49.602Z,860.62
2019-03-15T11:39:49.595Z,1063.12
2019-03-15T11:40:49.580Z,815.62
2019-03-15T11:41:49.570Z,781.88
2019-03-15T11:42:49.560Z,781.88
2019-03-15T11:43:49.550Z,725.62
2019-03-15T11:44:49.553Z,669.38
2019-03-15T11:45:49.528Z,675.00
2019-03-15T11:46:49.517Z,725.62
2019-03-15T11:48:02.787Z,720.00
2019-03-15T11:48:50.495Z,635.62
2019-03-15T11:49:49.565Z,511.88
2019-03-15T11:50:49.648Z,438.75
2019-03-15T11:51:49.469Z,478.12
2019-03-15T11:52:49.455Z,573.75
2019-03-15T11:53:49.442Z,658.12
2019-03-15T11:54:49.920Z,703.12
2019-03-15T11:55:49.421Z,742.50
2019-03-15T11:56:50.832Z,843.75
2019-03-15T11:57:49.398Z,1237.50
2019-03-15T11:58:49.388Z,2503.12
2019-03-15T11:59:49.380Z,1231.88
2019-03-15T12:00:49.372Z,984.38
2019-03-15T12:01:49.356Z,995.62
2019-03-15T12:02:49.344Z,883.12
2019-03-15T12:03:53.215Z,978.75
2019-03-15T12:04:49.328Z,1158.75
2019-03-15T12:05:49.317Z,1130.62
2019-03-15T12:06:49.302Z,1260.00
2019-03-15T12:07:49.291Z,1091.25
2019-03-15T12:08:49.280Z,1248.75
2019-03-15T12:09:49.270Z,1051.88
2019-03-15T12:10:49.264Z,1164.38
2019-03-15T12:11:49.248Z,990.00
2019-03-15T12:12:49.238Z,1023.75
2019-03-15T12:13:49.227Z,843.75
2019-03-15T12:14:49.217Z,624.38
2019-03-15T12:15:49.206Z,489.38
2019-03-15T12:16:49.195Z,478.12
2019-03-15T12:17:49.190Z,585.00
2019-03-15T12:18:49.180Z,753.75
2019-03-15T12:19:49.165Z,810.00
2019-03-15T12:20:49.535Z,635.62
2019-03-15T12:21:49.142Z,433.12
2019-03-15T12:22:49.130Z,405.00
2019-03-15T12:23:49.121Z,354.38
2019-03-15T12:24:49.111Z,247.50
2019-03-15T12:25:49.103Z,219.38
2019-03-15T12:26:49.091Z,225.00
2019-03-15T12:27:49.081Z,219.38
2019-03-15T12:28:49.072Z,230.62
2019-03-15T12:29:49.055Z,258.75
2019-03-15T12:30:49.046Z,258.75
2019-03-15T12:31:49.034Z,219.38
2019-03-15T12:32:49.026Z,230.62
2019-03-15T12:33:49.013Z,315.00
2019-03-15T12:34:49.008Z,405.00
2019-03-15T12:35:48.993Z,427.50
2019-03-15T12:36:48.981Z,455.62
2019-03-15T12:37:48.971Z,450.00
2019-03-15T12:38:48.963Z,427.50
2019-03-15T12:39:48.950Z,556.88
2019-03-15T12:40:48.939Z,804.38
2019-03-15T12:41:48.926Z,1096.88
2019-03-15T12:42:48.918Z,1023.75
2019-03-15T12:43:48.906Z,1063.12
2019-03-15T12:44:48.899Z,894.38
2019-03-15T12:45:48.886Z,810.00
2019-03-15T12:46:48.875Z,663.75
2019-03-15T12:47:48.861Z,556.88
2019-03-15T12:48:48.850Z,433.12